sensor_id;sensor_type;location;lat;lon;timestamp;pressure;altitude;pressure_sealevel;temperature;humidity
14966;BME280;7577;45.226;5.798;2023-08-06T00:02:07;98869.61;;;26.31;39.67
14966;BME280;7577;45.226;5.798;2023-08-06T00:04:37;98870.43;;;26.31;39.67
14966;BME280;7577;45.226;5.798;2023-08-06T00:09:48;98869.61;;;26.31;39.71
14966;BME280;7577;45.226;5.798;2023-08-06T00:12:18;98869.77;;;26.28;39.71
14966;BME280;7577;45.226;5.798;2023-08-06T00:17:29;98865.42;;;26.31;39.71
14966;BME280;7577;45.226;5.798;2023-08-06T00:19:59;98866.97;;;26.28;39.72
14966;BME280;7577;45.226;5.798;2023-08-06T00:22:31;98859.20;;;26.28;39.72
14966;BME280;7577;45.226;5.798;2023-08-06T00:25:01;98858.02;;;26.29;39.70
14966;BME280;7577;45.226;5.798;2023-08-06T00:27:33;98867.34;;;26.27;39.72
14966;BME280;7577;45.226;5.798;2023-08-06T00:30:04;98867.73;;;26.25;39.75
14966;BME280;7577;45.226;5.798;2023-08-06T00:32:34;98865.52;;;26.25;39.76
14966;BME280;7577;45.226;5.798;2023-08-06T00:35:06;98861.91;;;26.24;39.77
14966;BME280;7577;45.226;5.798;2023-08-06T00:37:37;98868.52;;;26.26;39.76
14966;BME280;7577;45.226;5.798;2023-08-06T00:40:09;98868.88;;;26.24;39.78
14966;BME280;7577;45.226;5.798;2023-08-06T00:42:39;98860.30;;;26.23;39.76
14966;BME280;7577;45.226;5.798;2023-08-06T00:45:10;98867.06;;;26.22;39.78
14966;BME280;7577;45.226;5.798;2023-08-06T00:47:42;98866.85;;;26.21;39.78
14966;BME280;7577;45.226;5.798;2023-08-06T00:50:12;98869.64;;;26.21;39.78
14966;BME280;7577;45.226;5.798;2023-08-06T00:52:43;98877.78;;;26.20;39.77
14966;BME280;7577;45.226;5.798;2023-08-06T00:55:13;98865.82;;;26.20;39.77
14966;BME280;7577;45.226;5.798;2023-08-06T00:57:44;98866.03;;;26.21;39.74
14966;BME280;7577;45.226;5.798;2023-08-06T01:00:15;98858.63;;;26.19;39.78
14966;BME280;7577;45.226;5.798;2023-08-06T01:02:45;98858.63;;;26.19;39.78
14966;BME280;7577;45.226;5.798;2023-08-06T01:05:16;98865.82;;;26.20;39.77
14966;BME280;7577;45.226;5.798;2023-08-06T01:10:33;98873.23;;;26.22;39.75
14966;BME280;7577;45.226;5.798;2023-08-06T01:15:49;98871.19;;;26.19;39.79
14966;BME280;7577;45.226;5.798;2023-08-06T01:18:19;98876.90;;;26.16;39.78
14966;BME280;7577;45.226;5.798;2023-08-06T01:20:49;98871.31;;;26.16;39.75
14966;BME280;7577;45.226;5.798;2023-08-06T01:23:19;98867.73;;;26.16;39.75
14966;BME280;7577;45.226;5.798;2023-08-06T01:28:41;98875.95;;;26.18;39.71
14966;BME280;7577;45.226;5.798;2023-08-06T01:31:07;98885.27;;;26.16;39.74
14966;BME280;7577;45.226;5.798;2023-08-06T01:33:42;98889.03;;;26.14;39.79
14966;BME280;7577;45.226;5.798;2023-08-06T01:36:13;98888.00;;;26.13;39.85
14966;BME280;7577;45.226;5.798;2023-08-06T01:38:45;98883.02;;;26.12;39.85
14966;BME280;7577;45.226;5.798;2023-08-06T01:41:15;98884.42;;;26.12;39.85
14966;BME280;7577;45.226;5.798;2023-08-06T01:43:46;98880.45;;;26.13;39.83
14966;BME280;7577;45.226;5.798;2023-08-06T01:48:53;98880.66;;;26.14;39.90
14966;BME280;7577;45.226;5.798;2023-08-06T01:51:24;98888.98;;;26.11;39.92
14966;BME280;7577;45.226;5.798;2023-08-06T01:53:54;98884.78;;;26.11;39.95
14966;BME280;7577;45.226;5.798;2023-08-06T01:56:24;98885.15;;;26.09;39.99
14966;BME280;7577;45.226;5.798;2023-08-06T02:01:32;98882.42;;;26.13;40.00
14966;BME280;7577;45.226;5.798;2023-08-06T02:04:02;98874.55;;;26.09;40.04
14966;BME280;7577;45.226;5.798;2023-08-06T02:06:32;98883.55;;;26.08;40.00
14966;BME280;7577;45.226;5.798;2023-08-06T02:09:02;98892.12;;;26.09;39.99
14966;BME280;7577;45.226;5.798;2023-08-06T02:11:33;98889.13;;;26.08;40.01
14966;BME280;7577;45.226;5.798;2023-08-06T02:14:03;98885.52;;;26.08;40.01
14966;BME280;7577;45.226;5.798;2023-08-06T02:16:33;98882.72;;;26.08;40.03
14966;BME280;7577;45.226;5.798;2023-08-06T02:19:03;98883.30;;;26.07;40.05
14966;BME280;7577;45.226;5.798;2023-08-06T02:21:33;98882.51;;;26.07;40.05
14966;BME280;7577;45.226;5.798;2023-08-06T02:26:42;98886.97;;;26.11;40.00
14966;BME280;7577;45.226;5.798;2023-08-06T02:29:12;98884.69;;;26.07;40.01
14966;BME280;7577;45.226;5.798;2023-08-06T02:31:42;98882.14;;;26.08;39.98
14966;BME280;7577;45.226;5.798;2023-08-06T02:34:13;98876.92;;;26.07;39.96
14966;BME280;7577;45.226;5.798;2023-08-06T02:36:43;98881.69;;;26.06;39.97
14966;BME280;7577;45.226;5.798;2023-08-06T02:39:13;98878.47;;;26.04;39.94
14966;BME280;7577;45.226;5.798;2023-08-06T02:41:43;98886.48;;;26.06;39.93
14966;BME280;7577;45.226;5.798;2023-08-06T02:44:13;98888.66;;;26.06;39.93
14966;BME280;7577;45.226;5.798;2023-08-06T02:46:45;98884.42;;;26.03;39.94
14966;BME280;7577;45.226;5.798;2023-08-06T02:49:15;98885.45;;;26.04;39.89
14966;BME280;7577;45.226;5.798;2023-08-06T02:51:47;98893.00;;;26.04;39.88
14966;BME280;7577;45.226;5.798;2023-08-06T02:54:17;98897.19;;;26.04;39.90
14966;BME280;7577;45.226;5.798;2023-08-06T02:56:47;98890.00;;;26.03;39.87
14966;BME280;7577;45.226;5.798;2023-08-06T02:59:18;98885.81;;;26.03;39.87
14966;BME280;7577;45.226;5.798;2023-08-06T03:01:48;98886.39;;;26.02;39.88
14966;BME280;7577;45.226;5.798;2023-08-06T03:06:57;98895.58;;;26.03;39.87
14966;BME280;7577;45.226;5.798;2023-08-06T03:12:06;98885.59;;;26.02;39.82
14966;BME280;7577;45.226;5.798;2023-08-06T03:14:37;98884.93;;;25.99;39.80
14966;BME280;7577;45.226;5.798;2023-08-06T03:19:45;98887.36;;;26.00;39.76
14966;BME280;7577;45.226;5.798;2023-08-06T03:22:15;98891.69;;;25.98;39.72
14966;BME280;7577;45.226;5.798;2023-08-06T03:24:45;98894.48;;;25.98;39.72
14966;BME280;7577;45.226;5.798;2023-08-06T03:27:16;98897.28;;;25.98;39.70
14966;BME280;7577;45.226;5.798;2023-08-06T03:29:49;98894.84;;;25.96;39.70
14966;BME280;7577;45.226;5.798;2023-08-06T03:32:19;98891.23;;;25.96;39.69
14966;BME280;7577;45.226;5.798;2023-08-06T03:34:50;98894.63;;;25.95;39.67
14966;BME280;7577;45.226;5.798;2023-08-06T03:39:58;98884.11;;;25.98;39.63
14966;BME280;7577;45.226;5.798;2023-08-06T03:42:28;98892.99;;;25.94;39.63
14966;BME280;7577;45.226;5.798;2023-08-06T03:44:58;98886.02;;;25.94;39.60
14966;BME280;7577;45.226;5.798;2023-08-06T03:50:07;98888.90;;;25.98;39.56
14966;BME280;7577;45.226;5.798;2023-08-06T03:52:37;98900.58;;;25.94;39.59
14966;BME280;7577;45.226;5.798;2023-08-06T03:55:08;98895.00;;;25.94;39.57
14966;BME280;7577;45.226;5.798;2023-08-06T03:57:38;98891.02;;;25.95;39.54
14966;BME280;7577;45.226;5.798;2023-08-06T04:00:10;98895.69;;;25.91;39.56
14966;BME280;7577;45.226;5.798;2023-08-06T04:02:41;98891.98;;;25.93;39.54
14966;BME280;7577;45.226;5.798;2023-08-06T04:05:11;98898.69;;;25.92;39.56
14966;BME280;7577;45.226;5.798;2023-08-06T04:07:41;98908.25;;;25.91;39.58
14966;BME280;7577;45.226;5.798;2023-08-06T04:10:12;98906.64;;;25.90;39.60
14966;BME280;7577;45.226;5.798;2023-08-06T04:12:42;98903.03;;;25.89;39.62
14966;BME280;7577;45.226;5.798;2023-08-06T04:15:12;98897.69;;;25.90;39.61
14966;BME280;7577;45.226;5.798;2023-08-06T04:17:42;98904.06;;;25.91;39.56
14966;BME280;7577;45.226;5.798;2023-08-06T04:20:15;98911.03;;;25.91;39.56
14966;BME280;7577;45.226;5.798;2023-08-06T04:22:45;98914.44;;;25.90;39.54
14966;BME280;7577;45.226;5.798;2023-08-06T04:25:16;98904.78;;;25.88;39.60
14966;BME280;7577;45.226;5.798;2023-08-06T04:27:48;98907.58;;;25.88;39.58
14966;BME280;7577;45.226;5.798;2023-08-06T04:30:18;98906.42;;;25.89;39.57
14966;BME280;7577;45.226;5.798;2023-08-06T04:32:49;98915.95;;;25.88;39.58
14966;BME280;7577;45.226;5.798;2023-08-06T04:35:19;98901.78;;;25.87;39.61
14966;BME280;7577;45.226;5.798;2023-08-06T04:37:50;98919.34;;;25.87;39.59
14966;BME280;7577;45.226;5.798;2023-08-06T04:40:20;98920.73;;;25.87;39.59
14966;BME280;7577;45.226;5.798;2023-08-06T04:42:50;98927.50;;;25.86;39.62
14966;BME280;7577;45.226;5.798;2023-08-06T04:45:21;98933.44;;;25.85;39.62
14966;BME280;7577;45.226;5.798;2023-08-06T04:50:30;98928.89;;;25.86;39.58
14966;BME280;7577;45.226;5.798;2023-08-06T04:53:00;98931.59;;;25.83;39.61
14966;BME280;7577;45.226;5.798;2023-08-06T04:55:30;98923.22;;;25.83;39.60
14966;BME280;7577;45.226;5.798;2023-08-06T04:58:01;98922.42;;;25.82;39.56
14966;BME280;7577;45.226;5.798;2023-08-06T05:00:31;98933.34;;;25.81;39.60
14966;BME280;7577;45.226;5.798;2023-08-06T05:03:01;98942.90;;;25.80;39.60
14966;BME280;7577;45.226;5.798;2023-08-06T05:05:32;98942.32;;;25.81;39.59
14966;BME280;7577;45.226;5.798;2023-08-06T05:08:02;98951.05;;;25.79;39.64
14966;BME280;7577;45.226;5.798;2023-08-06T05:10:32;98941.28;;;25.79;39.63
14966;BME280;7577;45.226;5.798;2023-08-06T05:13:03;98939.07;;;25.79;39.62
14966;BME280;7577;45.226;5.798;2023-08-06T05:15:32;98949.66;;;25.79;39.63
14966;BME280;7577;45.226;5.798;2023-08-06T05:18:05;98950.48;;;25.80;39.64
14966;BME280;7577;45.226;5.798;2023-08-06T05:20:38;98942.68;;;25.79;39.58
14966;BME280;7577;45.226;5.798;2023-08-06T05:23:08;98941.28;;;25.79;39.56
14966;BME280;7577;45.226;5.798;2023-08-06T05:25:39;98949.45;;;25.78;39.54
14966;BME280;7577;45.226;5.798;2023-08-06T05:28:09;98948.41;;;25.77;39.59
14966;BME280;7577;45.226;5.798;2023-08-06T05:30:41;98952.23;;;25.78;39.58
14966;BME280;7577;45.226;5.798;2023-08-06T05:35:50;98941.86;;;25.79;39.58
14966;BME280;7577;45.226;5.798;2023-08-06T05:38:20;98945.83;;;25.78;39.54
14966;BME280;7577;45.226;5.798;2023-08-06T05:43:29;98954.20;;;25.78;39.65
14966;BME280;7577;45.226;5.798;2023-08-06T05:45:59;98956.20;;;25.77;39.72
14966;BME280;7577;45.226;5.798;2023-08-06T05:48:29;98973.38;;;25.79;39.87
14966;BME280;7577;45.226;5.798;2023-08-06T05:51:00;98979.92;;;25.77;39.79
14966;BME280;7577;45.226;5.798;2023-08-06T05:53:30;98972.48;;;25.75;39.73
14966;BME280;7577;45.226;5.798;2023-08-06T05:56:00;98984.83;;;25.74;39.74
14966;BME280;7577;45.226;5.798;2023-08-06T05:58:30;98996.42;;;25.76;39.67
14966;BME280;7577;45.226;5.798;2023-08-06T06:01:00;99003.40;;;25.76;39.63
14966;BME280;7577;45.226;5.798;2023-08-06T06:03:30;99001.21;;;25.76;39.67
14966;BME280;7577;45.226;5.798;2023-08-06T06:06:02;99004.00;;;25.76;39.62
14966;BME280;7577;45.226;5.798;2023-08-06T06:08:32;99004.58;;;25.75;39.62
14966;BME280;7577;45.226;5.798;2023-08-06T06:11:02;99006.47;;;25.71;39.38
14966;BME280;7577;45.226;5.798;2023-08-06T06:13:33;99019.99;;;25.69;39.43
14966;BME280;7577;45.226;5.798;2023-08-06T06:16:03;99033.48;;;25.67;39.35
14966;BME280;7577;45.226;5.798;2023-08-06T06:18:34;99030.83;;;25.65;39.28
14966;BME280;7577;45.226;5.798;2023-08-06T06:21:04;99053.36;;;25.66;39.13
14966;BME280;7577;45.226;5.798;2023-08-06T06:23:35;99053.50;;;25.63;39.13
14966;BME280;7577;45.226;5.798;2023-08-06T06:28:43;99055.15;;;25.64;39.07
14966;BME280;7577;45.226;5.798;2023-08-06T06:31:13;99063.66;;;25.62;39.10
14966;BME280;7577;45.226;5.798;2023-08-06T06:33:43;99070.63;;;25.62;39.11
14966;BME280;7577;45.226;5.798;2023-08-06T06:36:13;99065.84;;;25.62;39.08
14966;BME280;7577;45.226;5.798;2023-08-06T06:38:43;99067.59;;;25.61;39.17
14966;BME280;7577;45.226;5.798;2023-08-06T06:41:14;99082.72;;;25.60;39.33
14966;BME280;7577;45.226;5.798;2023-08-06T06:43:44;99068.55;;;25.59;39.18
14966;BME280;7577;45.226;5.798;2023-08-06T06:46:14;99066.47;;;25.56;39.16
14966;BME280;7577;45.226;5.798;2023-08-06T06:48:44;99064.50;;;25.56;39.15
14966;BME280;7577;45.226;5.798;2023-08-06T06:51:15;99064.39;;;25.53;39.65
14966;BME280;7577;45.226;5.798;2023-08-06T06:53:45;99088.08;;;25.59;39.46
14966;BME280;7577;45.226;5.798;2023-08-06T06:56:15;99087.05;;;25.57;39.72
14966;BME280;7577;45.226;5.798;2023-08-06T06:58:45;99089.48;;;25.59;39.56
14966;BME280;7577;45.226;5.798;2023-08-06T07:01:16;99104.11;;;25.62;39.59
14966;BME280;7577;45.226;5.798;2023-08-06T07:06:24;99115.00;;;25.67;39.91
14966;BME280;7577;45.226;5.798;2023-08-06T07:11:33;99112.09;;;25.63;40.16
14966;BME280;7577;45.226;5.798;2023-08-06T07:14:03;99132.72;;;25.59;39.81
14966;BME280;7577;45.226;5.798;2023-08-06T07:19:11;99120.38;;;25.60;39.73
14966;BME280;7577;45.226;5.798;2023-08-06T07:21:41;99100.99;;;25.57;39.73
14966;BME280;7577;45.226;5.798;2023-08-06T07:24:11;99121.34;;;25.58;39.72
14966;BME280;7577;45.226;5.798;2023-08-06T07:26:41;99126.10;;;25.57;39.66
14966;BME280;7577;45.226;5.798;2023-08-06T07:29:11;99128.67;;;25.56;39.58
14966;BME280;7577;45.226;5.798;2023-08-06T07:31:41;99130.86;;;25.57;39.56
14966;BME280;7577;45.226;5.798;2023-08-06T07:34:12;99131.23;;;25.55;39.52
14966;BME280;7577;45.226;5.798;2023-08-06T07:36:44;99138.78;;;25.55;39.52
14966;BME280;7577;45.226;5.798;2023-08-06T07:39:14;99138.57;;;25.54;39.49
14966;BME280;7577;45.226;5.798;2023-08-06T07:41:45;99149.86;;;25.51;39.49
14966;BME280;7577;45.226;5.798;2023-08-06T07:44:16;99146.61;;;25.49;39.51
14966;BME280;7577;45.226;5.798;2023-08-06T07:46:45;99155.44;;;25.51;39.49
14966;BME280;7577;45.226;5.798;2023-08-06T07:49:16;99157.41;;;25.51;39.48
14966;BME280;7577;45.226;5.798;2023-08-06T07:51:46;99162.16;;;25.50;39.46
14966;BME280;7577;45.226;5.798;2023-08-06T07:54:16;99164.73;;;25.49;39.47
14966;BME280;7577;45.226;5.798;2023-08-06T07:56:47;99172.88;;;25.48;39.44
14966;BME280;7577;45.226;5.798;2023-08-06T08:01:55;99161.38;;;25.50;39.45
14966;BME280;7577;45.226;5.798;2023-08-06T08:04:25;99160.91;;;25.48;39.46
14966;BME280;7577;45.226;5.798;2023-08-06T08:06:55;99167.30;;;25.48;39.45
14966;BME280;7577;45.226;5.798;2023-08-06T08:09:25;99157.32;;;25.47;39.47
14966;BME280;7577;45.226;5.798;2023-08-06T08:11:56;99156.50;;;25.47;39.46
14966;BME280;7577;45.226;5.798;2023-08-06T08:14:27;99152.05;;;25.52;39.42
14966;BME280;7577;45.226;5.798;2023-08-06T08:16:57;99148.47;;;25.51;39.43
14966;BME280;7577;45.226;5.798;2023-08-06T08:19:28;99153.80;;;25.50;39.43
14966;BME280;7577;45.226;5.798;2023-08-06T08:21:58;99156.36;;;25.49;39.44
14966;BME280;7577;45.226;5.798;2023-08-06T08:24:28;99157.41;;;25.51;39.43
14966;BME280;7577;45.226;5.798;2023-08-06T08:26:59;99154.41;;;25.50;39.44
14966;BME280;7577;45.226;5.798;2023-08-06T08:29:29;99165.34;;;25.49;39.47
14966;BME280;7577;45.226;5.798;2023-08-06T08:31:59;99162.77;;;25.50;39.45
14966;BME280;7577;45.226;5.798;2023-08-06T08:34:30;99166.95;;;25.50;39.46
14966;BME280;7577;45.226;5.798;2023-08-06T08:37:00;99168.78;;;25.52;39.42
14966;BME280;7577;45.226;5.798;2023-08-06T08:42:08;99170.78;;;25.51;39.48
14966;BME280;7577;45.226;5.798;2023-08-06T08:44:39;99173.70;;;25.49;39.50
14966;BME280;7577;45.226;5.798;2023-08-06T08:47:11;99189.62;;;25.48;39.51
14966;BME280;7577;45.226;5.798;2023-08-06T08:49:46;99182.64;;;25.48;39.51
14966;BME280;7577;45.226;5.798;2023-08-06T08:52:18;99169.74;;;25.50;39.48
14966;BME280;7577;45.226;5.798;2023-08-06T08:57:31;99184.13;;;25.52;39.48
14966;BME280;7577;45.226;5.798;2023-08-06T09:00:01;99188.66;;;25.50;39.47
14966;BME280;7577;45.226;5.798;2023-08-06T09:02:33;99187.05;;;25.49;39.48
14966;BME280;7577;45.226;5.798;2023-08-06T09:05:05;99182.30;;;25.50;39.47
14966;BME280;7577;45.226;5.798;2023-08-06T09:07:42;99189.14;;;25.52;39.43
14966;BME280;7577;45.226;5.798;2023-08-06T09:10:11;99179.95;;;25.52;39.43
14966;BME280;7577;45.226;5.798;2023-08-06T09:12:44;99191.45;;;25.50;39.45
14966;BME280;7577;45.226;5.798;2023-08-06T09:15:14;99178.90;;;25.50;39.43
14966;BME280;7577;45.226;5.798;2023-08-06T09:20:23;99185.75;;;25.53;39.46
14966;BME280;7577;45.226;5.798;2023-08-06T09:22:54;99183.69;;;25.50;39.45
14966;BME280;7577;45.226;5.798;2023-08-06T09:25:25;99196.24;;;25.50;39.44
14966;BME280;7577;45.226;5.798;2023-08-06T09:27:56;99190.53;;;25.52;39.42
14966;BME280;7577;45.226;5.798;2023-08-06T09:30:31;99190.18;;;25.54;39.42
14966;BME280;7577;45.226;5.798;2023-08-06T09:33:02;99192.37;;;25.54;39.40
14966;BME280;7577;45.226;5.798;2023-08-06T09:35:33;99185.17;;;25.53;39.40
14966;BME280;7577;45.226;5.798;2023-08-06T09:38:10;99189.93;;;25.53;39.38
14966;BME280;7577;45.226;5.798;2023-08-06T09:40:41;99190.97;;;25.54;39.44
14966;BME280;7577;45.226;5.798;2023-08-06T09:43:13;99193.89;;;25.52;39.41
14966;BME280;7577;45.226;5.798;2023-08-06T09:45:43;99192.50;;;25.52;39.39
14966;BME280;7577;45.226;5.798;2023-08-06T09:48:13;99197.16;;;25.54;39.39
14966;BME280;7577;45.226;5.798;2023-08-06T09:50:43;99186.13;;;25.51;39.41
14966;BME280;7577;45.226;5.798;2023-08-06T09:53:16;99192.37;;;25.54;39.38
14966;BME280;7577;45.226;5.798;2023-08-06T09:55:47;99191.80;;;25.55;39.38
14966;BME280;7577;45.226;5.798;2023-08-06T10:00:55;99184.55;;;25.60;39.32
14966;BME280;7577;45.226;5.798;2023-08-06T10:03:26;99187.34;;;25.60;39.30
14966;BME280;7577;45.226;5.798;2023-08-06T10:05:58;99181.63;;;25.62;39.26
14966;BME280;7577;45.226;5.798;2023-08-06T10:08:30;99186.42;;;25.62;39.26
14966;BME280;7577;45.226;5.798;2023-08-06T10:11:01;99185.81;;;25.62;39.23
14966;BME280;7577;45.226;5.798;2023-08-06T10:13:34;99185.47;;;25.64;39.22
14966;BME280;7577;45.226;5.798;2023-08-06T10:16:05;99191.27;;;25.65;39.17
14966;BME280;7577;45.226;5.798;2023-08-06T10:18:37;99190.00;;;25.62;39.21
14966;BME280;7577;45.226;5.798;2023-08-06T10:21:09;99186.99;;;25.61;39.22
14966;BME280;7577;45.226;5.798;2023-08-06T10:26:20;99192.66;;;25.65;39.18
14966;BME280;7577;45.226;5.798;2023-08-06T10:28:50;99204.78;;;25.63;39.17
14966;BME280;7577;45.226;5.798;2023-08-06T10:31:21;99206.17;;;25.63;39.17
14966;BME280;7577;45.226;5.798;2023-08-06T10:33:52;99199.55;;;25.61;39.18
14966;BME280;7577;45.226;5.798;2023-08-06T10:36:23;99203.95;;;25.62;39.15
14966;BME280;7577;45.226;5.798;2023-08-06T10:38:55;99200.37;;;25.62;39.16
14966;BME280;7577;45.226;5.798;2023-08-06T10:41:30;99203.38;;;25.63;39.13
14966;BME280;7577;45.226;5.798;2023-08-06T10:44:08;99204.17;;;25.63;39.10
14966;BME280;7577;45.226;5.798;2023-08-06T10:46:38;99210.14;;;25.62;39.11
14966;BME280;7577;45.226;5.798;2023-08-06T10:49:08;99212.92;;;25.62;39.12
14966;BME280;7577;45.226;5.798;2023-08-06T10:51:40;99213.50;;;25.61;39.09
14966;BME280;7577;45.226;5.798;2023-08-06T10:54:11;99216.64;;;25.60;39.10
14966;BME280;7577;45.226;5.798;2023-08-06T10:56:41;99213.84;;;25.60;39.11
14966;BME280;7577;45.226;5.798;2023-08-06T10:59:14;99210.63;;;25.58;39.13
14966;BME280;7577;45.226;5.798;2023-08-06T11:04:33;99209.31;;;25.61;39.10
14966;BME280;7577;45.226;5.798;2023-08-06T11:07:03;99201.52;;;25.61;39.09
14966;BME280;7577;45.226;5.798;2023-08-06T11:09:34;99196.29;;;25.59;39.09
14966;BME280;7577;45.226;5.798;2023-08-06T11:12:07;99204.91;;;25.60;39.07
14966;BME280;7577;45.226;5.798;2023-08-06T11:14:38;99197.80;;;25.63;39.02
14966;BME280;7577;45.226;5.798;2023-08-06T11:17:09;99193.27;;;25.64;39.01
14966;BME280;7577;45.226;5.798;2023-08-06T11:22:19;99189.95;;;25.68;38.97
14966;BME280;7577;45.226;5.798;2023-08-06T11:24:51;99186.95;;;25.67;38.93
14966;BME280;7577;45.226;5.798;2023-08-06T11:27:23;99189.38;;;25.69;38.93
14966;BME280;7577;45.226;5.798;2023-08-06T11:29:53;99181.23;;;25.70;38.87
14966;BME280;7577;45.226;5.798;2023-08-06T11:32:23;99184.49;;;25.72;38.85
14966;BME280;7577;45.226;5.798;2023-08-06T11:34:54;99186.67;;;25.72;38.80
14966;BME280;7577;45.226;5.798;2023-08-06T11:37:24;99184.71;;;25.73;38.80
14966;BME280;7577;45.226;5.798;2023-08-06T11:39:55;99175.91;;;25.71;38.84
14966;BME280;7577;45.226;5.798;2023-08-06T11:42:26;99182.27;;;25.71;38.80
14966;BME280;7577;45.226;5.798;2023-08-06T11:44:58;99168.54;;;25.72;38.79
14966;BME280;7577;45.226;5.798;2023-08-06T11:47:28;99164.95;;;25.72;38.75
14966;BME280;7577;45.226;5.798;2023-08-06T11:49:58;99162.61;;;25.74;38.72
14966;BME280;7577;45.226;5.798;2023-08-06T11:52:29;99163.42;;;25.74;38.69
14966;BME280;7577;45.226;5.798;2023-08-06T11:55:04;99165.17;;;25.73;38.69
14966;BME280;7577;45.226;5.798;2023-08-06T11:57:36;99154.84;;;25.73;38.65
14966;BME280;7577;45.226;5.798;2023-08-06T12:00:11;99155.98;;;25.72;38.66
14966;BME280;7577;45.226;5.798;2023-08-06T12:05:21;99163.86;;;25.76;38.57
14966;BME280;7577;45.226;5.798;2023-08-06T12:07:53;99167.61;;;25.74;38.54
14966;BME280;7577;45.226;5.798;2023-08-06T12:13:03;99175.63;;;25.76;38.48
14966;BME280;7577;45.226;5.798;2023-08-06T12:18:12;99168.41;;;25.75;38.47
14966;BME280;7577;45.226;5.798;2023-08-06T12:20:43;99175.98;;;25.74;38.48
14966;BME280;7577;45.226;5.798;2023-08-06T12:23:13;99179.56;;;25.75;38.44
14966;BME280;7577;45.226;5.798;2023-08-06T12:25:44;99183.75;;;25.75;38.44
14966;BME280;7577;45.226;5.798;2023-08-06T12:28:14;99179.56;;;25.75;38.40
14966;BME280;7577;45.226;5.798;2023-08-06T12:30:44;99183.19;;;25.75;38.41
14966;BME280;7577;45.226;5.798;2023-08-06T12:33:14;99196.70;;;25.73;38.42
14966;BME280;7577;45.226;5.798;2023-08-06T12:35:44;99189.72;;;25.73;38.43
14966;BME280;7577;45.226;5.798;2023-08-06T12:38:15;99201.45;;;25.73;38.43
14966;BME280;7577;45.226;5.798;2023-08-06T12:40:45;99187.50;;;25.73;38.42
14966;BME280;7577;45.226;5.798;2023-08-06T12:43:15;99183.09;;;25.72;38.43
14966;BME280;7577;45.226;5.798;2023-08-06T12:45:45;99186.46;;;25.71;38.39
14966;BME280;7577;45.226;5.798;2023-08-06T12:48:17;99182.27;;;25.71;38.42
14966;BME280;7577;45.226;5.798;2023-08-06T12:50:48;99182.27;;;25.71;38.38
14966;BME280;7577;45.226;5.798;2023-08-06T12:53:18;99176.47;;;25.70;38.37
14966;BME280;7577;45.226;5.798;2023-08-06T12:58:31;99192.52;;;25.73;38.37
14966;BME280;7577;45.226;5.798;2023-08-06T13:01:01;99186.67;;;25.72;38.37
14966;BME280;7577;45.226;5.798;2023-08-06T13:03:32;99191.25;;;25.71;38.33
14966;BME280;7577;45.226;5.798;2023-08-06T13:06:02;99185.28;;;25.72;38.30
14966;BME280;7577;45.226;5.798;2023-08-06T13:08:32;99192.27;;;25.72;38.28
14966;BME280;7577;45.226;5.798;2023-08-06T13:11:02;99189.25;;;25.71;38.27
14966;BME280;7577;45.226;5.798;2023-08-06T13:13:32;99190.64;;;25.71;38.27
14966;BME280;7577;45.226;5.798;2023-08-06T13:16:03;99183.67;;;25.71;38.22
14966;BME280;7577;45.226;5.798;2023-08-06T13:21:11;99198.09;;;25.73;38.20
14966;BME280;7577;45.226;5.798;2023-08-06T13:23:42;99185.67;;;25.71;38.17
14966;BME280;7577;45.226;5.798;2023-08-06T13:26:12;99189.25;;;25.71;38.18
14966;BME280;7577;45.226;5.798;2023-08-06T13:28:42;99185.89;;;25.72;38.13
14966;BME280;7577;45.226;5.798;2023-08-06T13:31:13;99186.11;;;25.73;38.09
14966;BME280;7577;45.226;5.798;2023-08-06T13:33:43;99192.64;;;25.71;38.13
14966;BME280;7577;45.226;5.798;2023-08-06T13:36:13;99191.12;;;25.73;38.06
14966;BME280;7577;45.226;5.798;2023-08-06T13:38:43;99200.06;;;25.73;38.05
14966;BME280;7577;45.226;5.798;2023-08-06T13:41:14;99191.12;;;25.73;38.03
14966;BME280;7577;45.226;5.798;2023-08-06T13:43:44;99186.55;;;25.75;38.00
14966;BME280;7577;45.226;5.798;2023-08-06T13:46:14;99183.19;;;25.75;37.96
14966;BME280;7577;45.226;5.798;2023-08-06T13:48:47;99186.88;;;25.79;37.88
14966;BME280;7577;45.226;5.798;2023-08-06T13:51:19;99184.17;;;25.83;37.80
14966;BME280;7577;45.226;5.798;2023-08-06T13:53:49;99179.27;;;25.86;37.77
14966;BME280;7577;45.226;5.798;2023-08-06T13:56:21;99186.59;;;25.90;37.70
14966;BME280;7577;45.226;5.798;2023-08-06T13:58:51;99178.44;;;25.91;37.64
14966;BME280;7577;45.226;5.798;2023-08-06T14:01:21;99177.72;;;25.94;37.57
14966;BME280;7577;45.226;5.798;2023-08-06T14:03:51;99177.01;;;25.97;37.53
14966;BME280;7577;45.226;5.798;2023-08-06T14:06:22;99174.69;;;25.99;37.49
14966;BME280;7577;45.226;5.798;2023-08-06T14:11:31;99162.06;;;26.05;37.39
14966;BME280;7577;45.226;5.798;2023-08-06T14:14:01;99163.82;;;26.04;37.36
14966;BME280;7577;45.226;5.798;2023-08-06T14:16:31;99188.95;;;26.04;37.32
14966;BME280;7577;45.226;5.798;2023-08-06T14:21:39;99177.06;;;26.07;37.32
14966;BME280;7577;45.226;5.798;2023-08-06T14:24:09;99172.19;;;26.04;37.35
14966;BME280;7577;45.226;5.798;2023-08-06T14:26:40;99175.20;;;26.05;37.34
14966;BME280;7577;45.226;5.798;2023-08-06T14:29:10;99182.65;;;26.07;37.29
14966;BME280;7577;45.226;5.798;2023-08-06T14:31:42;99174.48;;;26.08;37.23
14966;BME280;7577;45.226;5.798;2023-08-06T14:34:13;99175.89;;;26.08;37.24
14966;BME280;7577;45.226;5.798;2023-08-06T14:36:44;99183.55;;;26.11;37.21
14966;BME280;7577;45.226;5.798;2023-08-06T14:39:13;99199.34;;;26.13;37.16
14966;BME280;7577;45.226;5.798;2023-08-06T14:41:44;99195.84;;;26.16;37.13
14966;BME280;7577;45.226;5.798;2023-08-06T14:44:14;99191.30;;;26.17;37.08
14966;BME280;7577;45.226;5.798;2023-08-06T14:46:44;99187.76;;;26.20;36.97
14966;BME280;7577;45.226;5.798;2023-08-06T14:49:14;99198.22;;;26.23;36.96
14966;BME280;7577;45.226;5.798;2023-08-06T14:51:45;99201.70;;;26.26;36.98
14966;BME280;7577;45.226;5.798;2023-08-06T14:54:15;99187.59;;;26.29;36.93
14966;BME280;7577;45.226;5.798;2023-08-06T14:56:45;99197.23;;;26.31;36.89
14966;BME280;7577;45.226;5.798;2023-08-06T14:59:16;99188.48;;;26.33;36.89
14966;BME280;7577;45.226;5.798;2023-08-06T15:01:46;99182.91;;;26.33;36.94